createdAt,value
2022-12-17T00:02:29.440Z,-5.70
2022-12-17T00:05:15.007Z,-5.80
2022-12-17T00:08:00.766Z,-5.80
2022-12-17T00:10:46.234Z,-5.80
2022-12-17T00:13:38.381Z,-5.80
2022-12-17T00:16:24.538Z,-5.90
2022-12-17T00:19:11.114Z,-5.90
2022-12-17T00:21:56.492Z,-6.00
2022-12-17T00:24:42.231Z,-6.00
2022-12-17T00:27:27.932Z,-6.00
2022-12-17T00:30:13.544Z,-6.00
2022-12-17T00:32:59.246Z,-6.10
2022-12-17T00:35:46.716Z,-5.90
2022-12-17T00:38:34.978Z,-5.90
2022-12-17T00:41:21.870Z,-5.90
2022-12-17T00:44:07.482Z,-5.90
2022-12-17T00:46:53.156Z,-6.00
2022-12-17T00:49:39.790Z,-6.10
2022-12-17T00:52:25.432Z,-6.10
2022-12-17T00:55:11.161Z,-6.20
2022-12-17T00:57:56.773Z,-6.20
2022-12-17T01:00:42.251Z,-6.20
2022-12-17T01:03:28.973Z,-6.30
2022-12-17T01:06:14.654Z,-6.30
2022-12-17T01:09:00.217Z,-6.30
2022-12-17T01:11:46.831Z,-6.30
2022-12-17T01:14:33.301Z,-6.30
2022-12-17T01:17:19.071Z,-6.30
2022-12-17T01:20:05.649Z,-6.20
2022-12-17T01:22:51.148Z,-6.20
2022-12-17T01:25:37.110Z,-6.20
2022-12-17T01:28:23.048Z,-6.10
2022-12-17T01:31:08.847Z,-6.10
2022-12-17T01:33:54.420Z,-6.10
2022-12-17T01:36:40.032Z,-5.80
2022-12-17T01:39:26.295Z,-5.70
2022-12-17T01:42:12.084Z,-5.70
2022-12-17T01:45:00.521Z,-5.70
2022-12-17T01:47:46.045Z,-5.70
2022-12-17T01:50:31.785Z,-5.80
2022-12-17T01:53:17.359Z,-5.50
2022-12-17T01:56:03.141Z,-5.50
2022-12-17T01:58:48.809Z,-5.60
2022-12-17T02:01:34.741Z,-5.60
2022-12-17T02:04:20.103Z,-5.60
2022-12-17T02:07:05.411Z,-5.60
2022-12-17T02:09:59.539Z,-5.60
2022-12-17T02:12:53.806Z,-5.60
2022-12-17T02:15:51.894Z,-5.60
2022-12-17T02:18:37.476Z,-5.50
2022-12-17T02:21:24.093Z,-5.50
2022-12-17T02:24:15.593Z,-5.50
2022-12-17T02:27:04.477Z,-5.50
2022-12-17T02:29:52.951Z,-5.50
2022-12-17T02:32:38.595Z,-5.40
2022-12-17T02:35:24.098Z,-5.40
2022-12-17T02:38:09.582Z,-5.40
2022-12-17T02:40:54.929Z,-5.40
2022-12-17T02:43:40.757Z,-5.40
2022-12-17T02:46:26.762Z,-5.40
2022-12-17T02:49:12.476Z,-5.40
2022-12-17T02:51:58.342Z,-5.40
2022-12-17T02:54:47.449Z,-5.40
2022-12-17T02:57:33.053Z,-5.40
2022-12-17T03:00:18.526Z,-5.40
2022-12-17T03:03:03.913Z,-5.40
2022-12-17T03:05:49.457Z,-5.10
2022-12-17T03:08:35.087Z,-5.10
2022-12-17T03:11:21.007Z,-5.10
2022-12-17T03:14:07.513Z,-4.90
2022-12-17T03:16:54.758Z,-4.80
2022-12-17T03:19:40.325Z,-4.90
2022-12-17T03:22:26.861Z,-4.90
2022-12-17T03:25:12.828Z,-5.00
2022-12-17T03:27:58.705Z,-4.70
2022-12-17T03:30:48.934Z,-4.40
2022-12-17T03:33:29.960Z,-4.00
2022-12-17T03:36:16.438Z,-4.40
2022-12-17T03:39:02.790Z,-4.40
2022-12-17T03:41:48.237Z,-4.50
2022-12-17T03:44:34.723Z,-4.70
2022-12-17T03:47:20.521Z,-4.70
2022-12-17T03:50:06.913Z,-4.60
2022-12-17T03:52:52.676Z,-4.60
2022-12-17T03:55:38.445Z,-4.60
2022-12-17T03:58:24.133Z,-4.40
2022-12-17T04:01:09.983Z,-4.40
2022-12-17T04:03:55.520Z,-4.50
2022-12-17T04:06:41.238Z,-4.60
2022-12-17T04:09:27.507Z,-4.80
2022-12-17T04:12:13.319Z,-4.80
2022-12-17T04:14:59.647Z,-4.90
2022-12-17T04:17:45.526Z,-4.90
2022-12-17T04:20:31.374Z,-5.00
2022-12-17T04:23:17.055Z,-5.00
2022-12-17T04:26:02.993Z,-5.00
2022-12-17T04:28:48.634Z,-5.10
2022-12-17T04:31:34.761Z,-4.80
2022-12-17T04:34:20.686Z,-4.90
2022-12-17T04:37:06.260Z,-4.90
2022-12-17T04:39:51.969Z,-4.60
2022-12-17T04:42:37.376Z,-4.30
2022-12-17T04:45:24.030Z,-4.10
2022-12-17T04:48:09.556Z,-4.10
2022-12-17T04:50:55.317Z,-4.10
2022-12-17T04:53:41.174Z,-4.20
2022-12-17T04:56:27.160Z,-4.30
2022-12-17T04:59:13.027Z,-4.40
2022-12-17T05:01:59.665Z,-4.30
2022-12-17T05:04:44.942Z,-4.30
2022-12-17T05:07:30.811Z,-4.40
2022-12-17T05:10:16.618Z,-4.40
2022-12-17T05:13:02.448Z,-4.50
2022-12-17T05:15:52.927Z,-4.50
2022-12-17T05:18:33.968Z,-4.50
2022-12-17T05:21:19.580Z,-4.50
2022-12-17T05:24:05.940Z,-4.20
2022-12-17T05:26:45.438Z,-4.20
2022-12-17T05:29:31.112Z,-4.30
2022-12-17T05:32:16.675Z,-4.30
2022-12-17T05:35:03.871Z,-4.40
2022-12-17T05:37:49.394Z,-4.40
2022-12-17T05:40:35.292Z,-4.40
2022-12-17T05:43:20.893Z,-4.50
2022-12-17T05:46:07.188Z,-4.20
2022-12-17T05:48:52.969Z,-4.30
2022-12-17T05:51:39.399Z,-4.40
2022-12-17T05:54:24.922Z,-4.40
2022-12-17T05:57:10.760Z,-4.50
2022-12-17T05:59:56.353Z,-4.60
2022-12-17T06:02:42.231Z,-4.70
2022-12-17T06:05:28.030Z,-4.70
2022-12-17T06:08:13.771Z,-4.80
2022-12-17T06:10:59.407Z,-4.90
2022-12-17T06:13:45.241Z,-4.90
2022-12-17T06:16:31.088Z,-5.00
2022-12-17T06:19:17.147Z,-5.00
2022-12-17T06:22:03.388Z,-4.60
2022-12-17T06:24:49.108Z,-4.60
2022-12-17T06:27:34.820Z,-4.70
2022-12-17T06:30:20.452Z,-4.80
2022-12-17T06:33:06.397Z,-4.90
2022-12-17T06:35:52.305Z,-5.00
2022-12-17T06:38:37.977Z,-5.00
2022-12-17T06:41:23.717Z,-4.90
2022-12-17T06:44:09.192Z,-4.60
2022-12-17T06:46:54.971Z,-4.70
2022-12-17T06:49:40.627Z,-4.50
2022-12-17T06:52:26.268Z,-4.30
2022-12-17T06:55:12.540Z,-4.30
2022-12-17T06:57:58.260Z,-4.30
2022-12-17T07:00:44.354Z,-4.80
2022-12-17T07:03:30.105Z,-4.80
2022-12-17T07:06:15.648Z,-5.00
2022-12-17T07:09:01.635Z,-4.90
2022-12-17T07:11:47.681Z,-5.00
2022-12-17T07:14:33.224Z,-5.30
2022-12-17T07:17:19.052Z,-5.50
2022-12-17T07:20:04.744Z,-5.70
2022-12-17T07:22:51.104Z,-6.10
2022-12-17T07:25:40.451Z,-6.10
2022-12-17T07:28:23.334Z,-6.40
2022-12-17T07:31:10.250Z,-6.40
2022-12-17T07:33:56.105Z,-6.40
2022-12-17T07:36:41.755Z,-6.50
2022-12-17T07:39:27.211Z,-6.50
2022-12-17T07:42:13.797Z,-6.60
2022-12-17T07:44:59.991Z,-6.60
2022-12-17T07:47:45.779Z,-6.60
2022-12-17T07:50:32.112Z,-6.50
2022-12-17T07:53:18.206Z,-6.50
2022-12-17T07:56:04.213Z,-6.50
2022-12-17T07:58:49.847Z,-6.50
2022-12-17T08:01:35.436Z,-6.50
2022-12-17T08:04:22.093Z,-6.60
2022-12-17T08:07:11.267Z,-6.60
2022-12-17T08:09:53.615Z,-6.60
2022-12-17T08:12:40.338Z,-6.30
2022-12-17T08:15:25.961Z,-6.40
2022-12-17T08:18:11.572Z,-6.30
2022-12-17T08:20:57.195Z,-6.30
2022-12-17T08:23:42.828Z,-6.30
2022-12-17T08:26:28.665Z,-6.00
2022-12-17T08:29:14.011Z,-6.00
2022-12-17T08:32:00.942Z,-6.10
2022-12-17T08:34:46.398Z,-6.10
2022-12-17T08:37:31.981Z,-6.10
2022-12-17T08:40:11.312Z,-6.10
2022-12-17T08:42:56.904Z,-6.10
2022-12-17T08:45:43.647Z,-6.10
2022-12-17T08:48:14.022Z,-6.10
2022-12-17T08:50:59.546Z,-6.00
2022-12-17T08:53:45.508Z,-6.00
2022-12-17T08:56:31.135Z,-5.90
2022-12-17T08:59:16.767Z,-5.90
2022-12-17T09:02:02.668Z,-5.80
2022-12-17T09:04:48.932Z,-5.70
2022-12-17T09:07:34.765Z,-5.70
2022-12-17T09:10:20.780Z,-5.70
2022-12-17T09:13:06.818Z,-5.60
2022-12-17T09:15:52.774Z,-5.70
2022-12-17T09:18:38.527Z,-5.60
2022-12-17T09:21:25.111Z,-5.60
2022-12-17T09:24:11.786Z,-5.60
2022-12-17T09:26:58.305Z,-5.50
2022-12-17T09:29:43.789Z,-5.50
2022-12-17T09:32:29.826Z,-5.50
2022-12-17T09:35:15.182Z,-5.50
2022-12-17T09:38:02.734Z,-5.40
2022-12-17T09:40:48.444Z,-5.40
2022-12-17T09:43:42.791Z,-5.40
2022-12-17T09:46:28.376Z,-5.50
2022-12-17T09:49:14.158Z,-5.40
2022-12-17T09:52:00.664Z,-5.10
2022-12-17T09:54:48.988Z,-5.10
2022-12-17T09:57:34.840Z,-5.00
2022-12-17T10:00:36.198Z,-5.00
2022-12-17T10:03:21.928Z,-4.90
2022-12-17T10:06:07.469Z,-4.80
2022-12-17T10:08:34.994Z,-4.70
2022-12-17T10:11:21.148Z,-4.60
2022-12-17T10:14:07.549Z,-4.60
2022-12-17T10:16:53.929Z,-4.60
2022-12-17T10:19:47.914Z,-4.60
2022-12-17T10:22:33.494Z,-4.60
2022-12-17T10:25:25.132Z,-4.40
2022-12-17T10:28:10.788Z,-4.00
2022-12-17T10:30:56.715Z,-4.00
2022-12-17T10:33:42.459Z,-4.10
2022-12-17T10:36:40.146Z,-4.20
2022-12-17T10:39:26.074Z,-4.20
2022-12-17T10:42:11.684Z,-4.20
2022-12-17T10:44:57.212Z,-4.30
2022-12-17T10:47:43.924Z,-4.30
2022-12-17T10:50:33.828Z,-4.30
2022-12-17T10:53:19.353Z,-4.40
2022-12-17T10:56:11.547Z,-4.40
2022-12-17T10:58:57.022Z,-4.40
2022-12-17T11:01:43.059Z,-4.40
2022-12-17T11:04:44.018Z,-4.30
2022-12-17T11:07:31.018Z,-4.30
2022-12-17T11:10:16.708Z,-4.20
2022-12-17T11:13:02.626Z,-4.00
2022-12-17T11:16:01.222Z,-3.20
2022-12-17T11:18:56.151Z,-3.30
2022-12-17T11:21:41.708Z,-3.40
2022-12-17T11:24:39.920Z,-3.20
2022-12-17T11:27:25.548Z,-3.20
2022-12-17T11:30:11.244Z,-3.30
2022-12-17T11:33:03.531Z,-3.40
2022-12-17T11:35:51.911Z,-3.40
2022-12-17T11:38:46.167Z,-3.40
2022-12-17T11:41:35.108Z,-3.40
2022-12-17T11:44:41.721Z,-3.40
2022-12-17T11:47:32.818Z,-3.40
2022-12-17T11:50:30.298Z,-3.30
2022-12-17T11:53:34.409Z,-3.00
2022-12-17T11:56:26.125Z,-2.90
2022-12-17T11:59:11.513Z,-2.60
2022-12-17T12:02:00.012Z,-2.30
2022-12-17T12:04:58.116Z,-2.50
2022-12-17T12:07:49.746Z,-2.50
2022-12-17T12:10:44.641Z,-2.60
2022-12-17T12:13:30.558Z,-2.70
2022-12-17T12:16:43.353Z,-2.80
2022-12-17T12:19:43.994Z,-2.60
2022-12-17T12:22:38.586Z,-2.60
2022-12-17T12:25:42.246Z,-2.70
2022-12-17T12:28:42.748Z,-2.60
2022-12-17T12:31:46.564Z,-2.30
2022-12-17T12:34:34.823Z,-2.30
2022-12-17T12:37:15.092Z,-2.50
2022-12-17T12:40:03.295Z,-2.60
2022-12-17T12:42:57.677Z,-2.60
2022-12-17T12:46:11.445Z,-2.60
2022-12-17T12:49:09.164Z,-2.60
2022-12-17T12:51:55.640Z,-2.40
2022-12-17T12:54:41.606Z,-2.40
2022-12-17T12:57:46.370Z,-2.60
2022-12-17T13:00:56.897Z,-2.60
2022-12-17T13:03:49.178Z,-2.70
2022-12-17T13:06:41.176Z,-2.80
2022-12-17T13:09:15.730Z,-2.80
2022-12-17T13:11:46.218Z,-2.80
2022-12-17T13:14:19.414Z,-2.80
2022-12-17T13:16:55.417Z,-2.90
2022-12-17T13:19:32.454Z,-2.90
2022-12-17T13:22:20.252Z,-2.90
2022-12-17T13:24:43.089Z,-3.00
2022-12-17T13:27:32.265Z,-3.00
2022-12-17T13:30:11.714Z,-2.80
2022-12-17T13:32:39.298Z,-2.80
2022-12-17T13:35:25.914Z,-2.50
2022-12-17T13:38:03.295Z,-2.50
2022-12-17T13:40:40.381Z,-2.50
2022-12-17T13:43:23.680Z,-2.60
2022-12-17T13:45:51.346Z,-2.60
2022-12-17T13:48:21.695Z,-2.70
2022-12-17T13:51:01.676Z,-2.50
2022-12-17T13:53:29.173Z,-2.50
2022-12-17T13:55:56.716Z,-2.50
2022-12-17T13:58:24.303Z,-2.40
2022-12-17T14:00:51.920Z,-2.10
2022-12-17T14:03:37.083Z,-2.20
2022-12-17T14:05:50.814Z,-2.10
2022-12-17T14:08:18.402Z,-2.10
2022-12-17T14:10:45.902Z,-2.30
2022-12-17T14:13:14.008Z,-2.40
2022-12-17T14:15:41.552Z,-2.60
2022-12-17T14:18:09.097Z,-2.70
2022-12-17T14:20:37.450Z,-2.90
2022-12-17T14:23:05.015Z,-2.90
2022-12-17T14:25:38.227Z,-2.90
2022-12-17T14:28:06.602Z,-2.60
2022-12-17T14:30:43.048Z,-2.60
2022-12-17T14:33:06.044Z,-2.70
2022-12-17T14:35:36.275Z,-2.70
2022-12-17T14:38:03.811Z,-2.50
2022-12-17T14:40:31.334Z,-2.50
2022-12-17T14:42:58.917Z,-2.60
2022-12-17T14:45:27.211Z,-2.50
2022-12-17T14:48:00.489Z,-2.50
2022-12-17T14:50:28.818Z,-2.40
2022-12-17T14:52:57.676Z,-2.40
2022-12-17T14:55:55.181Z,-2.50
2022-12-17T14:58:18.775Z,-2.70
2022-12-17T15:00:53.000Z,-2.90
2022-12-17T15:03:27.223Z,-3.00
2022-12-17T15:06:03.622Z,-3.00
2022-12-17T15:08:31.187Z,-3.10
2022-12-17T15:10:58.721Z,-3.20
2022-12-17T15:13:26.255Z,-3.20
2022-12-17T15:15:54.589Z,-3.40
2022-12-17T15:18:22.142Z,-3.40
2022-12-17T15:20:49.689Z,-3.40
2022-12-17T15:23:17.262Z,-3.50
2022-12-17T15:25:47.050Z,-3.50
2022-12-17T15:28:12.368Z,-3.50
2022-12-17T15:30:40.020Z,-3.60
2022-12-17T15:33:07.454Z,-3.60
2022-12-17T15:35:35.890Z,-3.70
2022-12-17T15:38:03.476Z,-3.80
2022-12-17T15:40:31.766Z,-3.80
2022-12-17T15:43:13.109Z,-3.90
2022-12-17T15:45:46.371Z,-3.90
2022-12-17T15:48:13.873Z,-3.90
2022-12-17T15:50:41.474Z,-3.90
2022-12-17T15:53:09.020Z,-4.00
2022-12-17T15:55:37.323Z,-4.00
2022-12-17T15:58:04.921Z,-4.10
2022-12-17T16:00:32.455Z,-4.10
2022-12-17T16:03:00.129Z,-4.10
2022-12-17T16:05:27.609Z,-4.10
2022-12-17T16:07:55.170Z,-4.10
2022-12-17T16:10:22.693Z,-3.90
2022-12-17T16:12:50.277Z,-3.90
2022-12-17T16:15:17.817Z,-3.70
2022-12-17T16:17:45.364Z,-3.80
2022-12-17T16:20:12.999Z,-3.60
2022-12-17T16:22:40.568Z,-3.70
2022-12-17T16:25:08.196Z,-3.90
2022-12-17T16:27:35.757Z,-4.00
2022-12-17T16:30:04.094Z,-4.20
2022-12-17T16:32:36.189Z,-4.30
2022-12-17T16:34:59.496Z,-4.30
2022-12-17T16:37:27.026Z,-4.30
2022-12-17T16:39:59.811Z,-4.40
2022-12-17T16:42:22.932Z,-4.40
2022-12-17T16:44:50.485Z,-4.50
2022-12-17T16:47:18.054Z,-4.60
2022-12-17T16:49:45.633Z,-4.60
2022-12-17T16:52:13.924Z,-4.70
2022-12-17T16:54:41.465Z,-4.70
2022-12-17T16:57:09.815Z,-4.80
2022-12-17T16:59:37.372Z,-4.80
2022-12-17T17:02:05.025Z,-4.80
2022-12-17T17:04:32.480Z,-4.70
2022-12-17T17:07:00.013Z,-4.70
2022-12-17T17:09:27.648Z,-4.80
2022-12-17T17:11:56.016Z,-4.90
2022-12-17T17:14:23.561Z,-5.00
2022-12-17T17:16:51.106Z,-5.00
2022-12-17T17:19:19.522Z,-5.00
2022-12-17T17:21:49.106Z,-5.00
2022-12-17T17:24:20.883Z,-5.10
2022-12-17T17:26:44.225Z,-4.80
2022-12-17T17:29:11.765Z,-4.50
2022-12-17T17:34:09.797Z,-4.40
2022-12-17T17:36:38.112Z,-4.70
2022-12-17T17:39:05.638Z,-4.70
2022-12-17T17:41:33.989Z,-4.90
2022-12-17T17:44:07.291Z,-5.00
2022-12-17T17:46:34.866Z,-5.00
2022-12-17T17:49:02.402Z,-5.10
2022-12-17T17:52:07.213Z,-5.20
2022-12-17T17:53:57.486Z,-5.20
2022-12-17T17:56:25.069Z,-5.30
2022-12-17T17:58:52.600Z,-5.40
2022-12-17T18:01:26.027Z,-5.50
2022-12-17T18:03:53.606Z,-5.50
2022-12-17T18:06:21.035Z,-5.50
2022-12-17T18:08:48.572Z,-5.60
2022-12-17T18:11:21.528Z,-5.60
2022-12-17T18:13:55.731Z,-5.40
2022-12-17T18:16:29.675Z,-5.50
2022-12-17T18:18:57.128Z,-5.50
2022-12-17T18:21:24.735Z,-5.60
2022-12-17T18:23:58.280Z,-5.40
2022-12-17T18:26:25.807Z,-5.40
2022-12-17T18:28:54.101Z,-5.60
2022-12-17T18:31:21.737Z,-5.60
2022-12-17T18:33:49.230Z,-5.60
2022-12-17T18:36:16.764Z,-5.70
2022-12-17T18:38:45.097Z,-5.80
2022-12-17T18:41:30.561Z,-5.80
2022-12-17T18:44:00.990Z,-5.80
2022-12-17T18:46:28.586Z,-5.90
2022-12-17T18:48:59.197Z,-5.90
2022-12-17T18:51:26.765Z,-6.00
2022-12-17T18:53:56.821Z,-6.00
2022-12-17T18:56:52.445Z,-6.10
2022-12-17T18:58:52.719Z,-6.10
2022-12-17T19:01:20.355Z,-6.10
2022-12-17T19:03:47.809Z,-6.10
2022-12-17T19:06:15.962Z,-6.00
2022-12-17T19:08:43.496Z,-5.90
2022-12-17T19:11:11.789Z,-6.10
2022-12-17T19:13:39.353Z,-6.10
2022-12-17T19:16:09.738Z,-6.10
2022-12-17T19:18:37.586Z,-6.20
2022-12-17T19:21:04.824Z,-6.20
2022-12-17T19:23:33.682Z,-6.30
2022-12-17T19:26:05.910Z,-6.30
2022-12-17T19:28:33.508Z,-6.30
2022-12-17T19:31:01.028Z,-6.30
2022-12-17T19:33:28.564Z,-6.10
2022-12-17T19:36:05.158Z,-6.10
2022-12-17T19:38:32.692Z,-5.90
2022-12-17T19:41:12.179Z,-6.00
2022-12-17T19:43:40.473Z,-6.20
2022-12-17T19:46:10.718Z,-6.20
2022-12-17T19:48:41.303Z,-6.20
2022-12-17T19:51:06.543Z,-6.40
2022-12-17T19:53:34.077Z,-6.40
2022-12-17T19:56:14.370Z,-6.40
2022-12-17T19:58:42.116Z,-6.50
2022-12-17T20:01:09.507Z,-6.50
2022-12-17T20:03:37.076Z,-6.50
2022-12-17T20:06:05.324Z,-6.30
2022-12-17T20:08:32.868Z,-6.30
2022-12-17T20:11:00.479Z,-6.00
2022-12-17T20:13:28.002Z,-5.70
2022-12-17T20:16:01.233Z,-5.80
2022-12-17T20:18:28.810Z,-5.70
2022-12-17T20:21:02.919Z,-6.00
2022-12-17T20:23:31.246Z,-6.20
2022-12-17T20:26:01.593Z,-6.20
2022-12-17T20:28:29.180Z,-6.30
2022-12-17T20:30:58.120Z,-6.40
2022-12-17T20:33:24.646Z,-6.30
2022-12-17T20:35:52.183Z,-6.00
2022-12-17T20:38:20.503Z,-6.00
2022-12-17T20:40:49.259Z,-6.00
2022-12-17T20:43:16.801Z,-6.20
2022-12-17T20:45:48.107Z,-6.50
2022-12-17T20:48:15.933Z,-6.50
2022-12-17T20:50:43.479Z,-6.60
2022-12-17T20:53:11.793Z,-6.90
2022-12-17T20:55:39.665Z,-6.90
2022-12-17T20:58:07.178Z,-7.00
2022-12-17T21:00:34.702Z,-6.90
2022-12-17T21:03:02.404Z,-6.90
2022-12-17T21:05:29.817Z,-7.00
2022-12-17T21:07:57.380Z,-6.90
2022-12-17T21:10:25.929Z,-6.60
2022-12-17T21:13:11.629Z,-6.30
2022-12-17T21:15:40.120Z,-6.10
2022-12-17T21:18:07.678Z,-5.90
2022-12-17T21:20:35.199Z,-5.80
2022-12-17T21:23:02.789Z,-6.10
2022-12-17T21:25:30.319Z,-6.40
2022-12-17T21:27:57.854Z,-6.60
2022-12-17T21:30:26.219Z,-6.90
2022-12-17T21:32:53.720Z,-6.90
2022-12-17T21:35:21.244Z,-7.00
2022-12-17T21:37:50.680Z,-7.10
2022-12-17T21:40:18.206Z,-7.10
2022-12-17T21:43:01.829Z,-7.20
2022-12-17T21:45:36.139Z,-7.00
2022-12-17T21:48:03.684Z,-7.00
2022-12-17T21:50:31.621Z,-7.00
2022-12-17T21:52:59.185Z,-7.00
2022-12-17T21:55:26.710Z,-7.10
2022-12-17T21:57:55.072Z,-7.20
2022-12-17T22:00:23.374Z,-7.20
2022-12-17T22:02:50.991Z,-7.20
2022-12-17T22:05:18.571Z,-7.20
2022-12-17T22:07:46.893Z,-7.30
2022-12-17T22:10:38.450Z,-7.30
2022-12-17T22:13:00.713Z,-7.40
2022-12-17T22:15:32.574Z,-7.40
2022-12-17T22:17:56.537Z,-7.40
2022-12-17T22:20:24.900Z,-7.40
2022-12-17T22:22:52.453Z,-7.50
2022-12-17T22:25:19.989Z,-7.50
2022-12-17T22:27:49.366Z,-7.30
2022-12-17T22:30:34.871Z,-7.40
2022-12-17T22:33:07.619Z,-7.40
2022-12-17T22:37:45.143Z,-7.50
2022-12-17T22:41:10.081Z,-7.50
2022-12-17T22:44:32.116Z,-7.60
2022-12-17T22:44:42.467Z,-7.60
2022-12-17T22:45:41.704Z,-7.70
2022-12-17T22:48:09.253Z,-7.70
2022-12-17T22:50:46.195Z,-7.70
2022-12-17T22:53:05.136Z,-7.80
2022-12-17T22:55:32.678Z,-7.80
2022-12-17T22:58:00.217Z,-7.80
2022-12-17T23:00:28.104Z,-7.80
2022-12-17T23:02:55.655Z,-7.80
2022-12-17T23:05:23.935Z,-7.80
2022-12-17T23:07:51.505Z,-7.80
2022-12-17T23:10:19.060Z,-7.80
2022-12-17T23:12:52.582Z,-7.70
2022-12-17T23:15:25.589Z,-7.40
2022-12-17T23:17:53.114Z,-7.00
2022-12-17T23:20:20.661Z,-6.80
2022-12-17T23:22:48.834Z,-7.00
2022-12-17T23:25:16.374Z,-7.00
2022-12-17T23:27:43.997Z,-6.80
2022-12-17T23:30:11.764Z,-6.90
2022-12-17T23:32:40.055Z,-7.30
2022-12-17T23:35:08.471Z,-7.40
2022-12-17T23:37:39.957Z,-7.40
2022-12-17T23:40:05.309Z,-7.60
2022-12-17T23:42:32.838Z,-7.60
2022-12-17T23:45:00.939Z,-7.60
2022-12-17T23:47:28.464Z,-7.70
2022-12-17T23:49:56.000Z,-7.70
2022-12-17T23:52:23.563Z,-7.70
2022-12-17T23:54:51.098Z,-7.70
2022-12-17T23:57:18.644Z,-7.80
2022-12-17T23:59:46.514Z,-7.80
